FFA702 ENTC-ENSB
Flight info
| Callsign | FFA702 |
|---|---|
| Flight time | 1h 29m |
| Altitude | 35000 |
| Route | LOMVI P600 INPAR |
| Aircraft | B738/M-SDE2E3FGHIRWXY/LB1 |
Departure
| Time | 2026-05-07 19:14 |
|---|---|
| Airport | Tromsø Airport (ENTC) |
Arrival
| Time | 2026-05-07 20:43 |
|---|---|
| Airport | Svalbard Airport, Longyear (ENSB) |
| Time | Latitude | Longitude | Altitude | Speed | Heading |
|---|---|---|---|---|---|
| 2026-05-07 18:38 | 69.67818 | 18.90821 | 36 ft | 0 kts | 283° |
| 2026-05-07 19:02 | 69.67814 | 18.90864 | 27 ft | 4 kts | 285° |
| 2026-05-07 19:02 | 69.67806 | 18.90938 | 35 ft | 4 kts | 290° |
| 2026-05-07 19:02 | 69.67796 | 18.91010 | 35 ft | 4 kts | 297° |
| 2026-05-07 19:03 | 69.67782 | 18.91075 | 35 ft | 4 kts | 311° |
| 2026-05-07 19:03 | 69.67764 | 18.91116 | 35 ft | 0 kts | 353° |
| 2026-05-07 19:05 | 69.67776 | 18.91120 | 37 ft | 6 kts | 10° |
| 2026-05-07 19:05 | 69.67847 | 18.91175 | 37 ft | 13 kts | 15° |
| 2026-05-07 19:06 | 69.67939 | 18.91240 | 35 ft | 14 kts | 13° |
| 2026-05-07 19:06 | 69.68116 | 18.91359 | 31 ft | 13 kts | 13° |
| 2026-05-07 19:06 | 69.68204 | 18.91419 | 29 ft | 13 kts | 13° |
| 2026-05-07 19:07 | 69.68292 | 18.91478 | 26 ft | 13 kts | 11° |
| 2026-05-07 19:07 | 69.68380 | 18.91496 | 26 ft | 13 kts | 0° |
| 2026-05-07 19:07 | 69.68467 | 18.91514 | 28 ft | 12 kts | 8° |
| 2026-05-07 19:07 | 69.68549 | 18.91563 | 25 ft | 12 kts | 14° |
| 2026-05-07 19:08 | 69.68629 | 18.91621 | 24 ft | 12 kts | 13° |
| 2026-05-07 19:08 | 69.68713 | 18.91676 | 20 ft | 13 kts | 13° |
| 2026-05-07 19:08 | 69.68771 | 18.91766 | 21 ft | 9 kts | 61° |
| 2026-05-07 19:08 | 69.68773 | 18.91882 | 19 ft | 0 kts | 99° |
| 2026-05-07 19:10 | 69.68770 | 18.91927 | 19 ft | 8 kts | 100° |
| 2026-05-07 19:11 | 69.68768 | 18.92117 | 19 ft | 10 kts | 70° |
| 2026-05-07 19:11 | 69.68824 | 18.92213 | 20 ft | 10 kts | 15° |
| 2026-05-07 19:11 | 69.68927 | 18.92285 | 23 ft | 20 kts | 13° |
| 2026-05-07 19:11 | 69.69103 | 18.92402 | 22 ft | 31 kts | 13° |
| 2026-05-07 19:12 | 69.69271 | 18.92514 | 22 ft | 16 kts | 14° |
| 2026-05-07 19:12 | 69.69354 | 18.92604 | 24 ft | 12 kts | 326° |
| 2026-05-07 19:12 | 69.69321 | 18.92523 | 23 ft | 9 kts | 175° |
| 2026-05-07 19:12 | 69.69277 | 18.92511 | 22 ft | 0 kts | 191° |
| 2026-05-07 19:13 | 69.69178 | 18.92449 | 22 ft | 49 kts | 193° |
| 2026-05-07 19:13 | 69.68577 | 18.92052 | 23 ft | 126 kts | 193° |
| 2026-05-07 19:13 | 69.67565 | 18.91402 | 397 ft | 157 kts | 192° |
| 2026-05-07 19:14 | 69.66483 | 18.90662 | 1320 ft | 162 kts | 193° |
| 2026-05-07 19:14 | 69.65341 | 18.89905 | 2072 ft | 183 kts | 193° |
| 2026-05-07 19:14 | 69.64025 | 18.89055 | 2547 ft | 200 kts | 192° |
| 2026-05-07 19:14 | 69.62643 | 18.88175 | 3109 ft | 206 kts | 192° |
| 2026-05-07 19:15 | 69.61234 | 18.87286 | 3753 ft | 208 kts | 192° |
| 2026-05-07 19:15 | 69.59819 | 18.86374 | 4419 ft | 209 kts | 196° |
| 2026-05-07 19:15 | 69.58603 | 18.84169 | 5034 ft | 212 kts | 233° |
| 2026-05-07 19:15 | 69.58075 | 18.80294 | 5677 ft | 213 kts | 266° |
| 2026-05-07 19:16 | 69.58252 | 18.76093 | 6302 ft | 215 kts | 282° |
| 2026-05-07 19:16 | 69.58587 | 18.71909 | 6921 ft | 216 kts | 282° |
| 2026-05-07 19:16 | 69.58958 | 18.67735 | 7526 ft | 217 kts | 291° |
| 2026-05-07 19:16 | 69.59890 | 18.64390 | 8116 ft | 220 kts | 328° |
| 2026-05-07 19:17 | 69.61370 | 18.63116 | 8491 ft | 236 kts | 0° |
| 2026-05-07 19:17 | 69.62986 | 18.64560 | 8763 ft | 254 kts | 27° |
| 2026-05-07 19:17 | 69.64581 | 18.67202 | 9013 ft | 275 kts | 29° |
| 2026-05-07 19:17 | 69.66249 | 18.70064 | 9677 ft | 282 kts | 29° |
| 2026-05-07 19:18 | 69.67945 | 18.72977 | 10381 ft | 287 kts | 29° |
| 2026-05-07 19:18 | 69.69704 | 18.75973 | 10628 ft | 310 kts | 29° |
| 2026-05-07 19:18 | 69.71631 | 18.79236 | 10842 ft | 332 kts | 29° |
| 2026-05-07 19:18 | 69.73660 | 18.82666 | 11322 ft | 343 kts | 28° |
| 2026-05-07 19:19 | 69.75735 | 18.86169 | 12021 ft | 348 kts | 28° |
| 2026-05-07 19:19 | 69.77832 | 18.89710 | 12779 ft | 351 kts | 28° |
| 2026-05-07 19:19 | 69.79952 | 18.93295 | 13513 ft | 355 kts | 28° |
| 2026-05-07 19:19 | 69.82124 | 18.96755 | 14196 ft | 358 kts | 20° |
| 2026-05-07 19:20 | 69.84541 | 18.98181 | 14853 ft | 356 kts | 0° |
| 2026-05-07 19:20 | 69.87020 | 18.98403 | 15601 ft | 357 kts | 359° |
| 2026-05-07 19:20 | 69.89505 | 18.98556 | 16339 ft | 358 kts | 359° |
| 2026-05-07 19:20 | 69.92005 | 18.98718 | 17008 ft | 361 kts | 359° |
| 2026-05-07 19:21 | 69.94530 | 18.98909 | 17631 ft | 365 kts | 359° |
| 2026-05-07 19:21 | 69.97085 | 18.99129 | 18287 ft | 369 kts | 359° |
| 2026-05-07 19:21 | 69.99661 | 18.99368 | 18858 ft | 372 kts | 359° |
| 2026-05-07 19:21 | 70.02258 | 18.99616 | 19427 ft | 375 kts | 360° |
| 2026-05-07 19:22 | 70.04873 | 18.99868 | 19996 ft | 378 kts | 360° |
| 2026-05-07 19:22 | 70.07496 | 19.00092 | 20538 ft | 380 kts | 358° |
| 2026-05-07 19:22 | 70.10114 | 18.98901 | 21040 ft | 380 kts | 341° |
| 2026-05-07 19:22 | 70.12631 | 18.96439 | 21610 ft | 383 kts | 340° |
| 2026-05-07 19:23 | 70.15163 | 18.93925 | 22113 ft | 386 kts | 340° |
| 2026-05-07 19:23 | 70.17723 | 18.91402 | 22613 ft | 390 kts | 340° |
| 2026-05-07 19:23 | 70.20307 | 18.88884 | 23113 ft | 393 kts | 341° |
| 2026-05-07 19:23 | 70.22916 | 18.86363 | 23605 ft | 396 kts | 341° |
| 2026-05-07 19:24 | 70.25548 | 18.83831 | 24015 ft | 399 kts | 341° |
| 2026-05-07 19:24 | 70.28198 | 18.81285 | 24406 ft | 402 kts | 341° |
| 2026-05-07 19:24 | 70.30864 | 18.78721 | 24803 ft | 404 kts | 341° |
| 2026-05-07 19:24 | 70.33550 | 18.76133 | 25179 ft | 407 kts | 341° |
| 2026-05-07 19:25 | 70.36251 | 18.73522 | 25556 ft | 410 kts | 341° |
| 2026-05-07 19:25 | 70.38934 | 18.70921 | 25929 ft | 413 kts | 341° |
| 2026-05-07 19:25 | 70.41674 | 18.68258 | 26279 ft | 415 kts | 341° |
| 2026-05-07 19:25 | 70.44428 | 18.65573 | 26655 ft | 417 kts | 341° |
| 2026-05-07 19:26 | 70.47199 | 18.62863 | 26981 ft | 420 kts | 341° |
| 2026-05-07 19:26 | 70.49986 | 18.60131 | 27317 ft | 423 kts | 341° |
| 2026-05-07 19:26 | 70.52794 | 18.57371 | 27660 ft | 425 kts | 341° |
| 2026-05-07 19:26 | 70.55606 | 18.54598 | 28042 ft | 427 kts | 341° |
| 2026-05-07 19:27 | 70.58435 | 18.51796 | 28368 ft | 429 kts | 341° |
| 2026-05-07 19:27 | 70.61276 | 18.48972 | 28664 ft | 432 kts | 341° |
| 2026-05-07 19:27 | 70.64138 | 18.46118 | 28933 ft | 435 kts | 341° |
| 2026-05-07 19:27 | 70.67031 | 18.43223 | 29126 ft | 440 kts | 341° |
| 2026-05-07 19:28 | 70.69929 | 18.40316 | 29553 ft | 439 kts | 341° |
| 2026-05-07 19:28 | 70.72830 | 18.37397 | 29928 ft | 439 kts | 341° |
| 2026-05-07 19:28 | 70.75721 | 18.34480 | 30292 ft | 439 kts | 341° |
| 2026-05-07 19:28 | 70.78628 | 18.31536 | 30504 ft | 441 kts | 341° |
| 2026-05-07 19:29 | 70.81547 | 18.28572 | 30720 ft | 443 kts | 341° |
| 2026-05-07 19:29 | 70.84471 | 18.25593 | 31066 ft | 442 kts | 341° |
| 2026-05-07 19:29 | 70.87381 | 18.22621 | 31377 ft | 441 kts | 341° |
| 2026-05-07 19:29 | 70.90253 | 18.19677 | 31663 ft | 442 kts | 341° |
| 2026-05-07 19:30 | 70.93209 | 18.16638 | 31844 ft | 444 kts | 341° |
| 2026-05-07 19:30 | 70.96107 | 18.13649 | 32069 ft | 446 kts | 341° |
| 2026-05-07 19:30 | 70.99042 | 18.10612 | 32360 ft | 445 kts | 341° |
| 2026-05-07 19:30 | 71.01973 | 18.07571 | 32691 ft | 444 kts | 341° |
| 2026-05-07 19:31 | 71.04894 | 18.04530 | 32950 ft | 445 kts | 341° |
| 2026-05-07 19:31 | 71.07837 | 18.01457 | 33113 ft | 447 kts | 341° |
| 2026-05-07 19:31 | 71.10790 | 17.98363 | 33346 ft | 448 kts | 341° |
| 2026-05-07 19:31 | 71.13744 | 17.95258 | 33580 ft | 449 kts | 341° |
| 2026-05-07 19:32 | 71.16695 | 17.92147 | 33920 ft | 447 kts | 341° |
| 2026-05-07 19:32 | 71.19637 | 17.89034 | 34189 ft | 447 kts | 341° |
| 2026-05-07 19:32 | 71.22580 | 17.85911 | 34349 ft | 448 kts | 341° |
| 2026-05-07 19:32 | 71.25534 | 17.82767 | 34495 ft | 450 kts | 341° |
| 2026-05-07 19:33 | 71.28496 | 17.79603 | 34685 ft | 450 kts | 341° |
| 2026-05-07 19:33 | 71.31455 | 17.76434 | 34918 ft | 449 kts | 341° |
| 2026-05-07 19:33 | 71.34406 | 17.73261 | 35106 ft | 449 kts | 341° |
| 2026-05-07 19:33 | 71.37371 | 17.70063 | 35101 ft | 453 kts | 341° |
| 2026-05-07 19:34 | 71.43325 | 17.63611 | 35111 ft | 452 kts | 341° |
| 2026-05-07 19:34 | 71.49235 | 17.57164 | 35118 ft | 448 kts | 341° |
| 2026-05-07 19:35 | 71.55102 | 17.50723 | 35117 ft | 445 kts | 341° |
| 2026-05-07 19:35 | 71.60937 | 17.44275 | 35130 ft | 444 kts | 341° |
| 2026-05-07 19:36 | 71.66762 | 17.37796 | 35133 ft | 444 kts | 341° |
| 2026-05-07 19:36 | 71.72589 | 17.31273 | 35134 ft | 445 kts | 341° |
| 2026-05-07 19:37 | 71.78440 | 17.24679 | 35140 ft | 447 kts | 341° |
| 2026-05-07 19:37 | 71.84311 | 17.18019 | 35132 ft | 449 kts | 341° |
| 2026-05-07 19:38 | 71.90210 | 17.11282 | 35139 ft | 451 kts | 341° |
| 2026-05-07 19:38 | 71.96139 | 17.04470 | 35145 ft | 453 kts | 341° |
| 2026-05-07 19:39 | 72.02184 | 16.98799 | 35132 ft | 453 kts | 352° |
| 2026-05-07 19:39 | 72.07393 | 16.96787 | 35139 ft | 454 kts | 354° |
| 2026-05-07 19:40 | 72.14701 | 16.94315 | 35149 ft | 454 kts | 354° |
| 2026-05-07 19:40 | 72.20980 | 16.92063 | 35152 ft | 454 kts | 354° |
| 2026-05-07 19:41 | 72.27250 | 16.89697 | 35145 ft | 453 kts | 354° |
| 2026-05-07 19:41 | 72.33501 | 16.87285 | 35161 ft | 452 kts | 354° |
| 2026-05-07 19:42 | 72.39743 | 16.84856 | 35159 ft | 451 kts | 354° |
| 2026-05-07 19:42 | 72.45968 | 16.82420 | 35156 ft | 450 kts | 354° |
| 2026-05-07 19:43 | 72.52184 | 16.79973 | 35160 ft | 449 kts | 354° |
| 2026-05-07 19:43 | 72.58388 | 16.77515 | 35164 ft | 449 kts | 354° |
| 2026-05-07 19:44 | 72.64586 | 16.75041 | 35178 ft | 448 kts | 354° |
| 2026-05-07 19:44 | 72.70783 | 16.72552 | 35167 ft | 449 kts | 354° |
| 2026-05-07 19:45 | 72.76974 | 16.70046 | 35180 ft | 449 kts | 354° |
| 2026-05-07 19:45 | 72.83175 | 16.67519 | 35177 ft | 449 kts | 354° |
| 2026-05-07 19:46 | 72.88335 | 16.65403 | 35187 ft | 449 kts | 354° |
| 2026-05-07 19:46 | 72.95553 | 16.62422 | 35175 ft | 450 kts | 354° |
| 2026-05-07 19:47 | 73.01774 | 16.59832 | 35181 ft | 450 kts | 354° |
| 2026-05-07 19:47 | 73.06986 | 16.57648 | 35176 ft | 451 kts | 354° |
| 2026-05-07 19:48 | 73.13212 | 16.55022 | 35190 ft | 451 kts | 354° |
| 2026-05-07 19:48 | 73.19442 | 16.52376 | 35192 ft | 451 kts | 354° |
| 2026-05-07 19:49 | 73.25674 | 16.49708 | 35189 ft | 451 kts | 354° |
| 2026-05-07 19:49 | 73.31908 | 16.47021 | 35207 ft | 451 kts | 354° |
| 2026-05-07 19:50 | 73.38095 | 16.44334 | 35196 ft | 451 kts | 354° |
| 2026-05-07 19:50 | 73.44328 | 16.41608 | 35213 ft | 451 kts | 354° |
| 2026-05-07 19:51 | 73.50548 | 16.38867 | 35210 ft | 450 kts | 354° |
| 2026-05-07 19:51 | 73.56765 | 16.36107 | 35216 ft | 450 kts | 354° |
| 2026-05-07 19:52 | 73.63013 | 16.33313 | 35221 ft | 449 kts | 354° |
| 2026-05-07 19:52 | 73.69171 | 16.30538 | 35224 ft | 449 kts | 354° |
| 2026-05-07 19:53 | 73.75361 | 16.27728 | 35226 ft | 448 kts | 354° |
| 2026-05-07 19:53 | 73.81546 | 16.24900 | 35231 ft | 448 kts | 353° |
| 2026-05-07 19:54 | 73.87728 | 16.22051 | 35227 ft | 448 kts | 354° |
| 2026-05-07 19:54 | 73.93902 | 16.19185 | 35236 ft | 447 kts | 354° |
| 2026-05-07 19:55 | 74.00073 | 16.16298 | 35236 ft | 447 kts | 354° |
| 2026-05-07 19:55 | 74.06248 | 16.13388 | 35247 ft | 447 kts | 354° |
| 2026-05-07 19:56 | 74.12419 | 16.10457 | 35245 ft | 447 kts | 354° |
| 2026-05-07 19:56 | 74.18595 | 16.07502 | 35246 ft | 448 kts | 353° |
| 2026-05-07 19:57 | 74.24778 | 16.04520 | 35253 ft | 448 kts | 354° |
| 2026-05-07 19:57 | 74.30967 | 16.01512 | 35248 ft | 449 kts | 353° |
| 2026-05-07 19:58 | 74.37160 | 15.98478 | 35253 ft | 449 kts | 354° |
| 2026-05-07 19:58 | 74.43358 | 15.95420 | 35245 ft | 450 kts | 353° |
| 2026-05-07 19:59 | 74.49561 | 15.92333 | 35256 ft | 450 kts | 353° |
| 2026-05-07 19:59 | 74.55763 | 15.89224 | 35259 ft | 450 kts | 353° |
| 2026-05-07 20:00 | 74.61959 | 15.86092 | 35264 ft | 449 kts | 353° |
| 2026-05-07 20:00 | 74.68155 | 15.82935 | 35269 ft | 449 kts | 353° |
| 2026-05-07 20:01 | 74.74345 | 15.79757 | 35266 ft | 449 kts | 353° |
| 2026-05-07 20:01 | 74.80490 | 15.76576 | 35266 ft | 449 kts | 353° |
| 2026-05-07 20:02 | 74.86671 | 15.73351 | 35268 ft | 448 kts | 353° |
| 2026-05-07 20:02 | 74.92850 | 15.70101 | 35267 ft | 448 kts | 353° |
| 2026-05-07 20:03 | 74.99023 | 15.66828 | 35276 ft | 448 kts | 353° |
| 2026-05-07 20:03 | 75.05192 | 15.63530 | 35283 ft | 447 kts | 353° |
| 2026-05-07 20:04 | 75.11358 | 15.60207 | 35277 ft | 448 kts | 353° |
| 2026-05-07 20:04 | 75.17529 | 15.56853 | 35289 ft | 447 kts | 353° |
| 2026-05-07 20:05 | 75.23697 | 15.53475 | 35282 ft | 448 kts | 353° |
| 2026-05-07 20:05 | 75.29867 | 15.50066 | 35295 ft | 448 kts | 353° |
| 2026-05-07 20:06 | 75.36036 | 15.46630 | 35291 ft | 448 kts | 353° |
| 2026-05-07 20:06 | 75.42203 | 15.43167 | 35293 ft | 448 kts | 353° |
| 2026-05-07 20:07 | 75.48368 | 15.39675 | 35300 ft | 447 kts | 353° |
| 2026-05-07 20:07 | 75.54530 | 15.36155 | 35297 ft | 447 kts | 353° |
| 2026-05-07 20:08 | 75.60694 | 15.32606 | 35306 ft | 447 kts | 353° |
| 2026-05-07 20:08 | 75.66846 | 15.29032 | 35306 ft | 447 kts | 353° |
| 2026-05-07 20:09 | 75.73001 | 15.25426 | 35306 ft | 447 kts | 353° |
| 2026-05-07 20:10 | 75.82184 | 15.19989 | 35300 ft | 446 kts | 352° |
| 2026-05-07 20:10 | 75.88323 | 15.16315 | 35307 ft | 446 kts | 353° |
| 2026-05-07 20:11 | 75.94468 | 15.12606 | 35315 ft | 446 kts | 352° |
| 2026-05-07 20:11 | 76.00608 | 15.08867 | 35314 ft | 446 kts | 352° |
| 2026-05-07 20:12 | 76.06749 | 15.05096 | 35319 ft | 446 kts | 352° |
| 2026-05-07 20:12 | 76.12888 | 15.01292 | 35315 ft | 446 kts | 352° |
| 2026-05-07 20:13 | 76.19031 | 14.97451 | 35317 ft | 444 kts | 352° |
| 2026-05-07 20:13 | 76.22075 | 14.95536 | 35033 ft | 441 kts | 352° |
| 2026-05-07 20:13 | 76.25084 | 14.93633 | 34732 ft | 433 kts | 352° |
| 2026-05-07 20:13 | 76.28051 | 14.91751 | 34340 ft | 430 kts | 352° |
| 2026-05-07 20:14 | 76.30998 | 14.89875 | 33895 ft | 426 kts | 352° |
| 2026-05-07 20:14 | 76.33916 | 14.88006 | 33466 ft | 422 kts | 352° |
| 2026-05-07 20:14 | 76.36810 | 14.86129 | 33045 ft | 419 kts | 352° |
| 2026-05-07 20:14 | 76.39674 | 14.84252 | 32644 ft | 415 kts | 352° |
| 2026-05-07 20:15 | 76.42513 | 14.82380 | 32255 ft | 411 kts | 352° |
| 2026-05-07 20:15 | 76.45321 | 14.80522 | 31853 ft | 407 kts | 352° |
| 2026-05-07 20:15 | 76.48108 | 14.78672 | 31481 ft | 403 kts | 352° |
| 2026-05-07 20:15 | 76.50872 | 14.76830 | 31111 ft | 400 kts | 352° |
| 2026-05-07 20:16 | 76.53607 | 14.75001 | 30743 ft | 397 kts | 352° |
| 2026-05-07 20:16 | 76.56286 | 14.73204 | 30372 ft | 394 kts | 352° |
| 2026-05-07 20:16 | 76.58982 | 14.71388 | 29924 ft | 390 kts | 352° |
| 2026-05-07 20:16 | 76.61647 | 14.69586 | 29544 ft | 385 kts | 352° |
| 2026-05-07 20:17 | 76.64283 | 14.67796 | 29159 ft | 381 kts | 352° |
| 2026-05-07 20:17 | 76.66882 | 14.66024 | 28787 ft | 376 kts | 352° |
| 2026-05-07 20:17 | 76.69451 | 14.64267 | 28407 ft | 372 kts | 352° |
| 2026-05-07 20:17 | 76.71994 | 14.62520 | 28025 ft | 368 kts | 352° |
| 2026-05-07 20:18 | 76.74514 | 14.60783 | 27677 ft | 364 kts | 352° |
| 2026-05-07 20:18 | 76.77008 | 14.59057 | 27293 ft | 361 kts | 352° |
| 2026-05-07 20:18 | 76.79479 | 14.57342 | 26951 ft | 358 kts | 352° |
| 2026-05-07 20:18 | 76.81926 | 14.55636 | 26577 ft | 355 kts | 352° |
| 2026-05-07 20:19 | 76.84355 | 14.53936 | 26232 ft | 352 kts | 353° |
| 2026-05-07 20:19 | 76.86763 | 14.52245 | 25873 ft | 349 kts | 353° |
| 2026-05-07 20:19 | 76.89149 | 14.50563 | 25533 ft | 346 kts | 353° |
| 2026-05-07 20:19 | 76.91522 | 14.48886 | 25180 ft | 344 kts | 353° |
| 2026-05-07 20:20 | 76.93878 | 14.47213 | 24838 ft | 342 kts | 353° |
| 2026-05-07 20:20 | 76.96217 | 14.45548 | 24498 ft | 340 kts | 353° |
| 2026-05-07 20:20 | 76.98543 | 14.43885 | 24162 ft | 338 kts | 353° |
| 2026-05-07 20:20 | 77.00855 | 14.42226 | 23806 ft | 336 kts | 353° |
| 2026-05-07 20:21 | 77.03156 | 14.40570 | 23413 ft | 334 kts | 353° |
| 2026-05-07 20:21 | 77.05435 | 14.38923 | 23080 ft | 330 kts | 353° |
| 2026-05-07 20:21 | 77.07694 | 14.37285 | 22725 ft | 327 kts | 353° |
| 2026-05-07 20:21 | 77.09927 | 14.35661 | 22403 ft | 324 kts | 353° |
| 2026-05-07 20:22 | 77.12142 | 14.34046 | 22080 ft | 321 kts | 353° |
| 2026-05-07 20:22 | 77.14343 | 14.32434 | 21736 ft | 320 kts | 353° |
| 2026-05-07 20:22 | 77.16538 | 14.30822 | 21429 ft | 320 kts | 353° |
| 2026-05-07 20:22 | 77.18735 | 14.29202 | 21175 ft | 321 kts | 353° |
| 2026-05-07 20:23 | 77.20975 | 14.27550 | 20844 ft | 331 kts | 353° |
| 2026-05-07 20:23 | 77.23262 | 14.25856 | 20489 ft | 334 kts | 353° |
| 2026-05-07 20:23 | 77.25547 | 14.24152 | 20138 ft | 331 kts | 353° |
| 2026-05-07 20:23 | 77.27812 | 14.22456 | 19801 ft | 329 kts | 353° |
| 2026-05-07 20:24 | 77.30062 | 14.20765 | 19464 ft | 326 kts | 353° |
| 2026-05-07 20:24 | 77.32265 | 14.19105 | 19140 ft | 324 kts | 353° |
| 2026-05-07 20:24 | 77.34511 | 14.17407 | 18808 ft | 322 kts | 353° |
| 2026-05-07 20:24 | 77.36685 | 14.15758 | 18467 ft | 320 kts | 353° |
| 2026-05-07 20:25 | 77.38873 | 14.14094 | 18106 ft | 318 kts | 353° |
| 2026-05-07 20:25 | 77.41040 | 14.12439 | 17783 ft | 314 kts | 353° |
| 2026-05-07 20:25 | 77.43191 | 14.10791 | 17457 ft | 312 kts | 353° |
| 2026-05-07 20:25 | 77.45319 | 14.09155 | 17125 ft | 309 kts | 352° |
| 2026-05-07 20:26 | 77.47433 | 14.07526 | 16818 ft | 306 kts | 352° |
| 2026-05-07 20:26 | 77.49528 | 14.05906 | 16490 ft | 304 kts | 352° |
| 2026-05-07 20:26 | 77.51603 | 14.04295 | 16186 ft | 302 kts | 352° |
| 2026-05-07 20:26 | 77.53668 | 14.02687 | 15866 ft | 300 kts | 352° |
| 2026-05-07 20:27 | 77.55715 | 14.01088 | 15560 ft | 298 kts | 352° |
| 2026-05-07 20:27 | 77.57748 | 13.99495 | 15239 ft | 296 kts | 352° |
| 2026-05-07 20:27 | 77.59772 | 13.97904 | 14935 ft | 294 kts | 352° |
| 2026-05-07 20:27 | 77.61779 | 13.96321 | 14634 ft | 292 kts | 352° |
| 2026-05-07 20:28 | 77.63775 | 13.94740 | 14339 ft | 290 kts | 352° |
| 2026-05-07 20:28 | 77.65761 | 13.93164 | 14035 ft | 289 kts | 352° |
| 2026-05-07 20:28 | 77.67735 | 13.91592 | 13698 ft | 287 kts | 352° |
| 2026-05-07 20:28 | 77.69696 | 13.90025 | 13391 ft | 285 kts | 352° |
| 2026-05-07 20:29 | 77.71641 | 13.88465 | 13098 ft | 283 kts | 352° |
| 2026-05-07 20:29 | 77.73571 | 13.86913 | 12814 ft | 280 kts | 352° |
| 2026-05-07 20:29 | 77.75486 | 13.85369 | 12513 ft | 278 kts | 352° |
| 2026-05-07 20:29 | 77.77388 | 13.83829 | 12207 ft | 277 kts | 352° |
| 2026-05-07 20:30 | 77.79279 | 13.82295 | 11916 ft | 275 kts | 352° |
| 2026-05-07 20:30 | 77.81170 | 13.80757 | 11633 ft | 277 kts | 352° |
| 2026-05-07 20:30 | 77.83086 | 13.79193 | 11346 ft | 281 kts | 352° |
| 2026-05-07 20:30 | 77.85031 | 13.77602 | 11048 ft | 286 kts | 352° |
| 2026-05-07 20:31 | 77.87004 | 13.75981 | 10744 ft | 288 kts | 351° |
| 2026-05-07 20:31 | 77.88962 | 13.74363 | 10530 ft | 279 kts | 351° |
| 2026-05-07 20:31 | 77.90825 | 13.72816 | 10393 ft | 265 kts | 351° |
| 2026-05-07 20:31 | 77.92597 | 13.71342 | 10269 ft | 255 kts | 351° |
| 2026-05-07 20:32 | 77.94339 | 13.69894 | 10017 ft | 252 kts | 351° |
| 2026-05-07 20:32 | 77.96060 | 13.68459 | 9760 ft | 250 kts | 351° |
| 2026-05-07 20:32 | 77.97768 | 13.67032 | 9510 ft | 248 kts | 351° |
| 2026-05-07 20:32 | 77.99457 | 13.65618 | 9242 ft | 246 kts | 351° |
| 2026-05-07 20:33 | 78.01137 | 13.64204 | 8985 ft | 244 kts | 351° |
| 2026-05-07 20:33 | 78.02814 | 13.62788 | 8749 ft | 246 kts | 351° |
| 2026-05-07 20:33 | 78.04518 | 13.61347 | 8491 ft | 251 kts | 351° |
| 2026-05-07 20:33 | 78.06270 | 13.61014 | 8201 ft | 256 kts | 14° |
| 2026-05-07 20:34 | 78.07362 | 13.63097 | 8039 ft | 254 kts | 28° |
| 2026-05-07 20:34 | 78.08902 | 13.67223 | 7767 ft | 253 kts | 29° |
| 2026-05-07 20:34 | 78.10431 | 13.71406 | 7494 ft | 252 kts | 29° |
| 2026-05-07 20:34 | 78.12441 | 13.76903 | 7144 ft | 249 kts | 29° |
| 2026-05-07 20:35 | 78.13950 | 13.81022 | 6886 ft | 248 kts | 29° |
| 2026-05-07 20:35 | 78.15449 | 13.85110 | 6624 ft | 246 kts | 29° |
| 2026-05-07 20:35 | 78.16941 | 13.89178 | 6353 ft | 245 kts | 28° |
| 2026-05-07 20:35 | 78.18416 | 13.93196 | 6083 ft | 243 kts | 28° |
| 2026-05-07 20:36 | 78.19418 | 13.95933 | 5899 ft | 242 kts | 29° |
| 2026-05-07 20:36 | 78.20887 | 13.99957 | 5554 ft | 244 kts | 29° |
| 2026-05-07 20:36 | 78.22352 | 14.03984 | 5351 ft | 240 kts | 29° |
| 2026-05-07 20:36 | 78.23791 | 14.07948 | 5206 ft | 234 kts | 29° |
| 2026-05-07 20:37 | 78.25164 | 14.12213 | 4929 ft | 233 kts | 33° |
| 2026-05-07 20:37 | 78.26463 | 14.16586 | 4833 ft | 225 kts | 34° |
| 2026-05-07 20:37 | 78.27748 | 14.20924 | 4704 ft | 218 kts | 34° |
| 2026-05-07 20:37 | 78.28978 | 14.25060 | 4510 ft | 215 kts | 33° |
| 2026-05-07 20:38 | 78.30126 | 14.29831 | 4243 ft | 214 kts | 57° |
| 2026-05-07 20:38 | 78.30466 | 14.36650 | 4077 ft | 210 kts | 94° |
| 2026-05-07 20:38 | 78.30286 | 14.43652 | 3878 ft | 203 kts | 97° |
| 2026-05-07 20:38 | 78.30081 | 14.50432 | 3654 ft | 196 kts | 98° |
| 2026-05-07 20:39 | 78.29797 | 14.56892 | 3429 ft | 190 kts | 103° |
| 2026-05-07 20:39 | 78.29454 | 14.63064 | 3215 ft | 183 kts | 104° |
| 2026-05-07 20:39 | 78.29107 | 14.68958 | 3051 ft | 175 kts | 105° |
| 2026-05-07 20:39 | 78.28767 | 14.74704 | 3020 ft | 175 kts | 105° |
| 2026-05-07 20:40 | 78.28430 | 14.80395 | 2828 ft | 169 kts | 105° |
| 2026-05-07 20:40 | 78.28114 | 14.85753 | 2621 ft | 157 kts | 105° |
| 2026-05-07 20:40 | 78.27820 | 14.90780 | 2353 ft | 150 kts | 105° |
| 2026-05-07 20:40 | 78.27531 | 14.95725 | 2156 ft | 152 kts | 106° |
| 2026-05-07 20:41 | 78.27237 | 15.00760 | 1954 ft | 154 kts | 106° |
| 2026-05-07 20:41 | 78.26944 | 15.05794 | 1696 ft | 152 kts | 106° |
| 2026-05-07 20:41 | 78.26657 | 15.10756 | 1449 ft | 150 kts | 106° |
| 2026-05-07 20:41 | 78.26374 | 15.15668 | 1220 ft | 149 kts | 106° |
| 2026-05-07 20:42 | 78.26093 | 15.20548 | 1010 ft | 149 kts | 106° |
| 2026-05-07 20:42 | 78.25814 | 15.25417 | 802 ft | 148 kts | 105° |
| 2026-05-07 20:42 | 78.25538 | 15.30257 | 602 ft | 146 kts | 105° |
| 2026-05-07 20:42 | 78.25265 | 15.35046 | 405 ft | 145 kts | 105° |
| 2026-05-07 20:43 | 78.24997 | 15.39785 | 216 ft | 144 kts | 105° |
| 2026-05-07 20:43 | 78.24732 | 15.44470 | 89 ft | 135 kts | 105° |
| 2026-05-07 20:43 | 78.24575 | 15.47414 | 90 ft | 36 kts | 105° |
| 2026-05-07 20:43 | 78.24548 | 15.47970 | 91 ft | 10 kts | 82° |
| 2026-05-07 20:44 | 78.24580 | 15.48286 | 88 ft | 10 kts | 72° |
| 2026-05-07 20:44 | 78.24593 | 15.48596 | 90 ft | 8 kts | 64° |
| 2026-05-07 20:44 | 78.24624 | 15.48803 | 88 ft | 7 kts | 63° |
| 2026-05-07 20:44 | 78.24625 | 15.49044 | 89 ft | 7 kts | 98° |
| 2026-05-07 20:45 | 78.24626 | 15.49284 | 90 ft | 7 kts | 98° |
| 2026-05-07 20:45 | 78.24615 | 15.49499 | 88 ft | 3 kts | 103° |
| 2026-05-07 20:45 | 78.24614 | 15.49603 | 87 ft | 3 kts | 79° |
| 2026-05-07 20:45 | 78.24623 | 15.49699 | 89 ft | 3 kts | 65° |
| 2026-05-07 20:46 | 78.24624 | 15.49704 | 89 ft | 0 kts | 65° |